createdAt,value
2022-12-06T00:02:58.793Z,101908.94
2022-12-06T00:08:04.061Z,101899.59
2022-12-06T00:13:09.167Z,101912.44
2022-12-06T00:18:14.144Z,101898.84
2022-12-06T00:23:19.122Z,101904.00
2022-12-06T00:28:24.111Z,101907.47
2022-12-06T00:33:30.361Z,101914.34
2022-12-06T00:38:36.109Z,101908.41
2022-12-06T00:43:41.595Z,101909.28
2022-12-06T00:48:47.911Z,101907.59
2022-12-06T00:53:53.650Z,101903.28
2022-12-06T00:58:58.919Z,101906.66
2022-12-06T01:04:06.617Z,101902.34
2022-12-06T01:09:12.923Z,101892.88
2022-12-06T01:14:18.043Z,101888.50
2022-12-06T01:19:23.445Z,101897.81
2022-12-06T01:24:28.711Z,101901.94
2022-12-06T01:29:38.974Z,101912.06
2022-12-06T01:34:46.537Z,101909.31
2022-12-06T01:39:51.926Z,101899.72
2022-12-06T01:45:01.976Z,101906.41
2022-12-06T01:50:17.226Z,101906.16
2022-12-06T01:55:26.077Z,101891.34
2022-12-06T02:00:31.523Z,101928.06
2022-12-06T02:05:41.003Z,101885.72
2022-12-06T02:10:46.674Z,101889.72
2022-12-06T02:16:20.637Z,101881.63
2022-12-06T02:21:37.091Z,101868.34
2022-12-06T02:26:51.397Z,101858.47
2022-12-06T02:31:56.776Z,101846.94
2022-12-06T02:37:25.740Z,101845.63
2022-12-06T02:43:02.913Z,101835.78
2022-12-06T02:48:11.293Z,101839.69
2022-12-06T02:53:21.378Z,101820.38
2022-12-06T02:58:26.848Z,101819.16
2022-12-06T03:03:57.045Z,101817.09
2022-12-06T03:09:08.524Z,101802.78
2022-12-06T03:14:22.706Z,101784.16
2022-12-06T03:19:31.481Z,101772.63
2022-12-06T03:24:41.413Z,101780.69
2022-12-06T03:29:54.582Z,101745.81
2022-12-06T03:35:05.026Z,101742.94
2022-12-06T03:40:26.678Z,101729.53
2022-12-06T03:45:55.896Z,101728.16
2022-12-06T03:51:10.500Z,101712.06
2022-12-06T03:56:15.973Z,101678.69
2022-12-06T04:01:22.786Z,101666.72
2022-12-06T04:06:28.924Z,101658.00
2022-12-06T04:11:35.190Z,101669.28
2022-12-06T04:16:58.729Z,101624.72
2022-12-06T04:22:21.264Z,101611.78
2022-12-06T04:27:44.938Z,101605.72
2022-12-06T04:33:08.283Z,101589.09
2022-12-06T04:38:34.490Z,101578.97
2022-12-06T04:43:43.717Z,101565.69
2022-12-06T04:48:52.290Z,101551.75
2022-12-06T04:53:57.908Z,101552.69
2022-12-06T04:59:05.292Z,101543.19
2022-12-06T05:04:12.096Z,101539.63
2022-12-06T05:09:17.924Z,101530.91
2022-12-06T05:14:23.491Z,101522.69
2022-12-06T05:19:33.164Z,101517.81
2022-12-06T05:24:39.205Z,101508.66
2022-12-06T05:29:44.826Z,101495.25
2022-12-06T05:34:50.264Z,101489.38
2022-12-06T05:40:00.588Z,101493.31
2022-12-06T05:45:06.510Z,101475.63
2022-12-06T05:50:15.146Z,101488.00
2022-12-06T05:55:26.012Z,101460.59
2022-12-06T06:00:31.571Z,101456.63
2022-12-06T06:05:41.162Z,101457.97
2022-12-06T06:10:48.415Z,101449.56
2022-12-06T06:15:55.147Z,101446.84
2022-12-06T06:21:04.391Z,101447.63
2022-12-06T06:26:12.558Z,101449.19
2022-12-06T06:31:21.501Z,101473.47
2022-12-06T06:36:27.044Z,101442.44
2022-12-06T06:41:35.531Z,101447.66
2022-12-06T06:46:43.808Z,101442.59
2022-12-06T06:51:50.545Z,101452.22
2022-12-06T06:56:58.501Z,101461.72
2022-12-06T07:02:04.755Z,101441.94
2022-12-06T07:07:19.279Z,101441.44
2022-12-06T07:12:27.448Z,101448.78
2022-12-06T07:17:34.872Z,101436.53
2022-12-06T07:22:40.761Z,101446.22
2022-12-06T07:27:46.597Z,101443.00
2022-12-06T07:32:54.440Z,101436.38
2022-12-06T07:38:00.227Z,101452.19
2022-12-06T07:43:24.439Z,101460.91
2022-12-06T07:48:32.310Z,101448.44
2022-12-06T07:53:39.647Z,101454.66
2022-12-06T07:58:45.253Z,101452.41
2022-12-06T08:03:52.411Z,101449.22
2022-12-06T08:08:59.085Z,101445.06
2022-12-06T08:14:08.494Z,101446.53
2022-12-06T08:19:15.469Z,101454.41
2022-12-06T08:24:23.536Z,101463.34
2022-12-06T08:29:29.511Z,101462.63
2022-12-06T08:34:36.384Z,101473.41
2022-12-06T08:39:43.663Z,101466.50
2022-12-06T08:44:53.277Z,101464.91
2022-12-06T08:50:00.490Z,101487.63
2022-12-06T08:55:08.987Z,101477.16
2022-12-06T09:00:15.122Z,101501.53
2022-12-06T09:05:23.790Z,101471.06
2022-12-06T09:10:29.954Z,101467.50
2022-12-06T09:15:37.543Z,101468.28
2022-12-06T09:20:44.439Z,101473.13
2022-12-06T09:25:50.189Z,101468.72
2022-12-06T09:30:59.602Z,101483.19
2022-12-06T09:36:16.653Z,101487.19
2022-12-06T09:41:32.200Z,101482.63
2022-12-06T09:46:50.724Z,101482.28
2022-12-06T09:52:17.260Z,101480.25
2022-12-06T09:57:51.986Z,101505.91
2022-12-06T10:03:09.657Z,101519.38
2022-12-06T10:08:36.692Z,101512.84
2022-12-06T10:13:57.331Z,101511.59
2022-12-06T10:19:27.797Z,101518.06
2022-12-06T10:25:09.718Z,101526.44
2022-12-06T10:30:17.522Z,101532.03
2022-12-06T10:35:35.151Z,101535.84
2022-12-06T10:41:12.507Z,101529.19
2022-12-06T10:46:45.967Z,101539.56
2022-12-06T10:52:07.628Z,101550.81
2022-12-06T10:57:35.769Z,101568.22
2022-12-06T11:02:58.863Z,101570.13
2022-12-06T11:08:17.710Z,101578.91
2022-12-06T11:13:35.301Z,101591.72
2022-12-06T11:18:41.997Z,101591.91
2022-12-06T11:24:24.078Z,101584.41
2022-12-06T11:29:29.297Z,101587.19
2022-12-06T11:34:56.208Z,101598.56
2022-12-06T11:40:32.454Z,101602.28
2022-12-06T11:45:42.214Z,101603.44
2022-12-06T11:50:50.597Z,101618.44
2022-12-06T11:56:02.700Z,101612.41
2022-12-06T12:01:17.232Z,101600.56
2022-12-06T12:06:30.079Z,101607.06
2022-12-06T12:11:39.315Z,101611.75
2022-12-06T12:16:52.263Z,101615.72
2022-12-06T12:22:00.112Z,101625.06
2022-12-06T12:27:33.599Z,101627.31
2022-12-06T12:32:38.646Z,101621.88
2022-12-06T12:37:44.119Z,101636.06
2022-12-06T12:42:50.356Z,101655.38
2022-12-06T12:48:24.692Z,101650.44
2022-12-06T12:53:43.120Z,101648.09
2022-12-06T12:59:02.483Z,101641.59
2022-12-06T13:04:16.627Z,101654.63
2022-12-06T13:09:30.745Z,101662.63
2022-12-06T13:14:37.689Z,101657.63
2022-12-06T13:19:53.424Z,101661.22
2022-12-06T13:25:08.192Z,101693.16
2022-12-06T13:30:19.788Z,101657.19
2022-12-06T13:35:44.910Z,101648.84
2022-12-06T13:41:01.200Z,101649.78
2022-12-06T13:46:15.798Z,101648.19
2022-12-06T13:51:36.344Z,101639.66
2022-12-06T13:56:44.506Z,101653.50
2022-12-06T14:01:53.737Z,101655.31
2022-12-06T14:07:34.173Z,101661.41
2022-12-06T14:12:39.750Z,101672.75
2022-12-06T14:18:09.633Z,101668.66
2022-12-06T14:23:32.708Z,101676.44
2022-12-06T14:28:39.493Z,101682.44
2022-12-06T14:33:46.255Z,101675.56
2022-12-06T14:39:19.837Z,101669.56
2022-12-06T14:44:34.395Z,101691.19
2022-12-06T14:49:58.658Z,101658.59
2022-12-06T14:55:32.043Z,101664.59
2022-12-06T15:01:18.930Z,101685.22
2022-12-06T15:06:26.755Z,101664.66
2022-12-06T15:11:50.448Z,101657.06
2022-12-06T15:17:20.212Z,101654.66
2022-12-06T15:22:29.182Z,101669.38
2022-12-06T15:27:35.791Z,101691.00
2022-12-06T15:32:41.556Z,101675.69
2022-12-06T15:37:50.337Z,101684.31
2022-12-06T15:43:00.632Z,101698.91
2022-12-06T15:48:08.172Z,101690.22
2022-12-06T15:53:20.719Z,101698.88
2022-12-06T15:58:26.337Z,101700.66
2022-12-06T16:03:33.837Z,101700.81
2022-12-06T16:08:39.218Z,101704.41
2022-12-06T16:13:44.457Z,101701.97
2022-12-06T16:18:51.040Z,101705.44
2022-12-06T16:24:13.191Z,101697.00
2022-12-06T16:29:26.688Z,101705.63
2022-12-06T16:34:31.571Z,101700.59
2022-12-06T16:39:37.521Z,101709.19
2022-12-06T16:44:52.181Z,101712.78
2022-12-06T16:49:57.362Z,101731.75
2022-12-06T16:55:02.655Z,101730.16
2022-12-06T17:00:08.421Z,101742.22
2022-12-06T17:05:20.437Z,101725.94
2022-12-06T17:10:25.299Z,101731.91
2022-12-06T17:15:30.293Z,101724.16
2022-12-06T17:20:34.963Z,101734.38
2022-12-06T17:25:39.567Z,101738.69
2022-12-06T17:30:49.298Z,101728.41
2022-12-06T17:35:56.750Z,101731.91
2022-12-06T17:41:01.312Z,101720.00
2022-12-06T17:46:10.396Z,101702.09
2022-12-06T17:51:15.095Z,101704.72
2022-12-06T17:56:32.004Z,101708.13
2022-12-06T18:02:06.265Z,101695.34
2022-12-06T18:07:02.728Z,101703.91
2022-12-06T18:12:06.796Z,101712.47
2022-12-06T18:17:10.873Z,101709.00
2022-12-06T18:22:16.586Z,101714.97
2022-12-06T18:27:21.132Z,101726.94
2022-12-06T18:32:25.658Z,101716.59
2022-12-06T18:37:30.215Z,101729.34
2022-12-06T18:42:36.069Z,101726.78
2022-12-06T18:47:40.706Z,101716.50
2022-12-06T18:52:45.350Z,101719.03
2022-12-06T18:57:49.987Z,101704.31
2022-12-06T19:02:54.598Z,101717.78
2022-12-06T19:07:59.243Z,101706.53
2022-12-06T19:13:05.815Z,101710.69
2022-12-06T19:18:14.680Z,101696.94
2022-12-06T19:23:19.722Z,101686.63
2022-12-06T19:28:24.241Z,101689.16
2022-12-06T19:33:29.096Z,101688.22
2022-12-06T19:38:34.790Z,101707.94
2022-12-06T19:43:57.504Z,101702.97
2022-12-06T19:49:06.641Z,101696.28
2022-12-06T19:54:15.462Z,101705.09
2022-12-06T19:59:20.749Z,101706.09
2022-12-06T20:04:31.083Z,101706.09
2022-12-06T20:09:36.453Z,101707.88
2022-12-06T20:14:49.871Z,101700.28
2022-12-06T20:19:54.476Z,101684.13
2022-12-06T20:24:59.135Z,101685.00
2022-12-06T20:30:04.093Z,101680.81
2022-12-06T20:35:09.130Z,101680.88
2022-12-06T20:40:14.304Z,101671.47
2022-12-06T20:45:20.339Z,101691.09
2022-12-06T20:50:24.917Z,101695.34
2022-12-06T20:55:29.769Z,101686.75
2022-12-06T21:00:34.486Z,101689.31
2022-12-06T21:05:41.040Z,101704.72
2022-12-06T21:11:21.189Z,101698.75
2022-12-06T21:16:27.499Z,101711.66
2022-12-06T21:21:35.806Z,101710.91
2022-12-06T21:26:40.986Z,101721.22
2022-12-06T21:31:45.779Z,101724.69
2022-12-06T21:36:50.354Z,101723.91
2022-12-06T21:41:55.297Z,101745.38
2022-12-06T21:46:59.910Z,101739.53
2022-12-06T21:52:09.202Z,101746.47
2022-12-06T21:57:14.096Z,101776.50
2022-12-06T22:02:19.861Z,101751.69
2022-12-06T22:07:24.551Z,101756.81
2022-12-06T22:12:29.499Z,101769.59
2022-12-06T22:17:34.047Z,101761.03
2022-12-06T22:22:38.088Z,101765.34
2022-12-06T22:27:42.583Z,101762.84
2022-12-06T22:32:47.194Z,101758.56
2022-12-06T22:37:51.778Z,101765.41
2022-12-06T22:42:56.248Z,101773.13
2022-12-06T22:48:00.823Z,101799.63
2022-12-06T22:53:04.847Z,101777.41
2022-12-06T22:58:09.428Z,101782.59
2022-12-06T23:03:14.110Z,101782.59
2022-12-06T23:08:18.697Z,101788.63
2022-12-06T23:13:23.398Z,101789.50
2022-12-06T23:18:29.630Z,101804.03
2022-12-06T23:23:34.394Z,101813.44
2022-12-06T23:28:39.239Z,101835.69
2022-12-06T23:33:45.578Z,101807.47
2022-12-06T23:38:50.628Z,101798.06
2022-12-06T23:43:55.254Z,101804.91
2022-12-06T23:49:00.134Z,101803.19
2022-12-06T23:54:07.385Z,101804.03
2022-12-06T23:59:15.664Z,101796.34
